sensor_id;sensor_type;location;lat;lon;timestamp;temperature;humidity
34542;DHT22;20784;51.332;12.410;2022-10-17T00:01:00;15.80;99.90
34542;DHT22;20784;51.332;12.410;2022-10-17T00:03:36;15.90;99.90
34542;DHT22;20784;51.332;12.410;2022-10-17T00:06:12;15.90;99.90
34542;DHT22;20784;51.332;12.410;2022-10-17T00:08:53;15.80;99.90
34542;DHT22;20784;51.332;12.410;2022-10-17T00:11:24;15.90;99.90
34542;DHT22;20784;51.332;12.410;2022-10-17T00:14:02;15.80;99.90
34542;DHT22;20784;51.332;12.410;2022-10-17T00:16:53;15.80;99.90
34542;DHT22;20784;51.332;12.410;2022-10-17T00:19:21;15.80;99.90
34542;DHT22;20784;51.332;12.410;2022-10-17T00:21:48;15.80;99.90
34542;DHT22;20784;51.332;12.410;2022-10-17T00:24:21;15.80;99.90
34542;DHT22;20784;51.332;12.410;2022-10-17T00:26:47;15.80;99.90
34542;DHT22;20784;51.332;12.410;2022-10-17T00:29:13;15.80;99.90
34542;DHT22;20784;51.332;12.410;2022-10-17T00:31:39;15.70;99.90
34542;DHT22;20784;51.332;12.410;2022-10-17T00:34:12;15.80;99.90
34542;DHT22;20784;51.332;12.410;2022-10-17T00:36:38;15.80;99.90
34542;DHT22;20784;51.332;12.410;2022-10-17T00:39:12;15.80;99.90
34542;DHT22;20784;51.332;12.410;2022-10-17T00:41:38;15.90;99.90
34542;DHT22;20784;51.332;12.410;2022-10-17T00:47:09;15.80;99.90
34542;DHT22;20784;51.332;12.410;2022-10-17T00:49:38;15.80;99.90
34542;DHT22;20784;51.332;12.410;2022-10-17T00:52:21;15.80;99.90
34542;DHT22;20784;51.332;12.410;2022-10-17T00:58:06;15.70;99.90
34542;DHT22;20784;51.332;12.410;2022-10-17T01:00:40;15.70;99.90
34542;DHT22;20784;51.332;12.410;2022-10-17T01:03:06;15.70;99.90
34542;DHT22;20784;51.332;12.410;2022-10-17T01:05:35;15.60;99.90
34542;DHT22;20784;51.332;12.410;2022-10-17T01:08:01;15.60;99.90
34542;DHT22;20784;51.332;12.410;2022-10-17T01:11:00;15.60;99.90
34542;DHT22;20784;51.332;12.410;2022-10-17T01:13:51;15.40;99.90
34542;DHT22;20784;51.332;12.410;2022-10-17T01:20:04;15.40;99.90
34542;DHT22;20784;51.332;12.410;2022-10-17T01:47:29;15.40;99.90
34542;DHT22;20784;51.332;12.410;2022-10-17T01:50:22;15.40;99.90
34542;DHT22;20784;51.332;12.410;2022-10-17T01:53:24;15.50;99.90
34542;DHT22;20784;51.332;12.410;2022-10-17T01:55:54;15.60;99.90
34542;DHT22;20784;51.332;12.410;2022-10-17T01:58:50;15.70;99.90
34542;DHT22;20784;51.332;12.410;2022-10-17T02:01:21;15.70;99.90
34542;DHT22;20784;51.332;12.410;2022-10-17T02:03:52;15.80;99.90
34542;DHT22;20784;51.332;12.410;2022-10-17T02:06:19;15.90;99.90
34542;DHT22;20784;51.332;12.410;2022-10-17T02:08:53;15.90;99.90
34542;DHT22;20784;51.332;12.410;2022-10-17T02:11:33;16.00;99.90
34542;DHT22;20784;51.332;12.410;2022-10-17T02:26:19;16.40;99.90
34542;DHT22;20784;51.332;12.410;2022-10-17T02:29:01;16.50;99.90
34542;DHT22;20784;51.332;12.410;2022-10-17T02:31:37;16.50;99.90
34542;DHT22;20784;51.332;12.410;2022-10-17T02:34:26;16.50;99.90
34542;DHT22;20784;51.332;12.410;2022-10-17T02:37:04;16.60;99.90
34542;DHT22;20784;51.332;12.410;2022-10-17T02:39:38;16.70;99.90
34542;DHT22;20784;51.332;12.410;2022-10-17T02:42:16;16.70;99.90
34542;DHT22;20784;51.332;12.410;2022-10-17T02:44:52;16.70;99.90
34542;DHT22;20784;51.332;12.410;2022-10-17T02:47:28;16.80;99.90
34542;DHT22;20784;51.332;12.410;2022-10-17T02:50:07;16.70;99.90
34542;DHT22;20784;51.332;12.410;2022-10-17T02:53:00;16.70;99.90
34542;DHT22;20784;51.332;12.410;2022-10-17T02:55:33;16.80;99.90
34542;DHT22;20784;51.332;12.410;2022-10-17T02:58:14;16.90;99.90
34542;DHT22;20784;51.332;12.410;2022-10-17T03:00:44;16.90;99.90
34542;DHT22;20784;51.332;12.410;2022-10-17T03:03:24;17.00;99.90
34542;DHT22;20784;51.332;12.410;2022-10-17T03:05:57;17.00;99.90
34542;DHT22;20784;51.332;12.410;2022-10-17T03:08:26;17.00;99.90
34542;DHT22;20784;51.332;12.410;2022-10-17T03:10:52;17.10;99.90
34542;DHT22;20784;51.332;12.410;2022-10-17T03:13:28;17.10;99.90
34542;DHT22;20784;51.332;12.410;2022-10-17T03:15:59;17.10;99.90
34542;DHT22;20784;51.332;12.410;2022-10-17T03:18:28;17.20;99.90
34542;DHT22;20784;51.332;12.410;2022-10-17T03:21:12;17.30;99.90
34542;DHT22;20784;51.332;12.410;2022-10-17T03:23:58;17.50;99.90
34542;DHT22;20784;51.332;12.410;2022-10-17T03:26:44;17.50;99.90
34542;DHT22;20784;51.332;12.410;2022-10-17T03:29:27;17.50;99.90
34542;DHT22;20784;51.332;12.410;2022-10-17T03:32:35;17.50;99.90
34542;DHT22;20784;51.332;12.410;2022-10-17T03:35:07;17.50;99.90
34542;DHT22;20784;51.332;12.410;2022-10-17T03:38:02;17.50;99.90
34542;DHT22;20784;51.332;12.410;2022-10-17T03:40:43;17.60;99.90
34542;DHT22;20784;51.332;12.410;2022-10-17T03:43:14;17.60;99.90
34542;DHT22;20784;51.332;12.410;2022-10-17T03:46:04;17.60;99.90
34542;DHT22;20784;51.332;12.410;2022-10-17T03:48:39;17.50;99.90
34542;DHT22;20784;51.332;12.410;2022-10-17T03:54:58;17.50;99.90
34542;DHT22;20784;51.332;12.410;2022-10-17T04:01:12;17.60;99.90
34542;DHT22;20784;51.332;12.410;2022-10-17T04:07:30;17.60;99.90
34542;DHT22;20784;51.332;12.410;2022-10-17T04:10:35;17.50;99.90
34542;DHT22;20784;51.332;12.410;2022-10-17T04:13:37;17.50;99.90
34542;DHT22;20784;51.332;12.410;2022-10-17T04:16:16;17.30;99.90
34542;DHT22;20784;51.332;12.410;2022-10-17T04:18:52;17.40;99.90
34542;DHT22;20784;51.332;12.410;2022-10-17T04:21:27;17.40;99.90
34542;DHT22;20784;51.332;12.410;2022-10-17T04:24:10;17.40;99.90
34542;DHT22;20784;51.332;12.410;2022-10-17T04:29:59;17.40;99.90
34542;DHT22;20784;51.332;12.410;2022-10-17T04:32:36;17.40;99.90
34542;DHT22;20784;51.332;12.410;2022-10-17T04:38:11;17.30;99.90
34542;DHT22;20784;51.332;12.410;2022-10-17T04:41:16;17.30;99.90
34542;DHT22;20784;51.332;12.410;2022-10-17T04:44:26;17.40;99.90
34542;DHT22;20784;51.332;12.410;2022-10-17T04:53:51;17.20;99.90
34542;DHT22;20784;51.332;12.410;2022-10-17T04:56:39;17.20;99.90
34542;DHT22;20784;51.332;12.410;2022-10-17T05:02:40;17.10;99.90
34542;DHT22;20784;51.332;12.410;2022-10-17T05:05:16;17.00;99.90
34542;DHT22;20784;51.332;12.410;2022-10-17T05:10:42;17.00;99.90
34542;DHT22;20784;51.332;12.410;2022-10-17T05:13:10;17.00;99.90
34542;DHT22;20784;51.332;12.410;2022-10-17T05:15:39;16.90;99.90
34542;DHT22;20784;51.332;12.410;2022-10-17T05:18:10;16.90;99.90
34542;DHT22;20784;51.332;12.410;2022-10-17T05:20:36;16.90;99.90
34542;DHT22;20784;51.332;12.410;2022-10-17T05:23:02;16.80;99.90
34542;DHT22;20784;51.332;12.410;2022-10-17T05:25:33;16.90;99.90
34542;DHT22;20784;51.332;12.410;2022-10-17T05:28:04;16.70;99.90
34542;DHT22;20784;51.332;12.410;2022-10-17T05:30:35;16.80;99.90
34542;DHT22;20784;51.332;12.410;2022-10-17T05:33:11;16.80;99.90
34542;DHT22;20784;51.332;12.410;2022-10-17T05:35:46;16.80;99.90
34542;DHT22;20784;51.332;12.410;2022-10-17T05:38:14;16.70;99.90
34542;DHT22;20784;51.332;12.410;2022-10-17T05:40:51;16.70;99.90
34542;DHT22;20784;51.332;12.410;2022-10-17T05:43:19;16.60;99.90
34542;DHT22;20784;51.332;12.410;2022-10-17T05:45:48;16.70;99.90
34542;DHT22;20784;51.332;12.410;2022-10-17T05:48:14;16.70;99.90
34542;DHT22;20784;51.332;12.410;2022-10-17T05:50:39;16.70;99.90
34542;DHT22;20784;51.332;12.410;2022-10-17T05:53:05;16.60;99.90
34542;DHT22;20784;51.332;12.410;2022-10-17T05:55:31;16.70;99.90
34542;DHT22;20784;51.332;12.410;2022-10-17T05:57:59;16.70;99.90
34542;DHT22;20784;51.332;12.410;2022-10-17T06:00:24;16.80;99.90
34542;DHT22;20784;51.332;12.410;2022-10-17T06:02:50;16.70;99.90
34542;DHT22;20784;51.332;12.410;2022-10-17T06:05:16;16.70;99.90
34542;DHT22;20784;51.332;12.410;2022-10-17T06:07:45;16.70;99.90
34542;DHT22;20784;51.332;12.410;2022-10-17T06:10:20;16.70;99.90
34542;DHT22;20784;51.332;12.410;2022-10-17T06:12:46;16.70;99.90
34542;DHT22;20784;51.332;12.410;2022-10-17T06:15:14;16.70;99.90
34542;DHT22;20784;51.332;12.410;2022-10-17T06:17:40;16.70;99.90
34542;DHT22;20784;51.332;12.410;2022-10-17T06:20:06;16.70;99.90
34542;DHT22;20784;51.332;12.410;2022-10-17T06:22:32;16.70;99.90
34542;DHT22;20784;51.332;12.410;2022-10-17T06:24:58;16.60;99.90
34542;DHT22;20784;51.332;12.410;2022-10-17T06:27:26;16.80;99.90
34542;DHT22;20784;51.332;12.410;2022-10-17T06:29:51;16.90;99.90
34542;DHT22;20784;51.332;12.410;2022-10-17T06:32:17;16.90;99.90
34542;DHT22;20784;51.332;12.410;2022-10-17T06:34:43;17.00;99.90
34542;DHT22;20784;51.332;12.410;2022-10-17T06:37:11;17.10;99.90
34542;DHT22;20784;51.332;12.410;2022-10-17T06:39:37;17.30;99.90
34542;DHT22;20784;51.332;12.410;2022-10-17T06:42:09;17.40;99.90
34542;DHT22;20784;51.332;12.410;2022-10-17T06:44:35;17.60;99.90
34542;DHT22;20784;51.332;12.410;2022-10-17T06:47:01;17.70;99.90
34542;DHT22;20784;51.332;12.410;2022-10-17T06:49:27;18.00;99.90
34542;DHT22;20784;51.332;12.410;2022-10-17T06:51:59;18.20;99.90
34542;DHT22;20784;51.332;12.410;2022-10-17T06:54:24;18.40;99.90
34542;DHT22;20784;51.332;12.410;2022-10-17T06:57:10;18.60;99.90
34542;DHT22;20784;51.332;12.410;2022-10-17T06:59:36;18.80;99.90
34542;DHT22;20784;51.332;12.410;2022-10-17T07:02:08;19.10;99.90
34542;DHT22;20784;51.332;12.410;2022-10-17T07:04:34;19.10;99.90
34542;DHT22;20784;51.332;12.410;2022-10-17T07:07:02;18.90;99.90
34542;DHT22;20784;51.332;12.410;2022-10-17T07:09:29;18.90;99.90
34542;DHT22;20784;51.332;12.410;2022-10-17T07:11:55;18.80;99.90
34542;DHT22;20784;51.332;12.410;2022-10-17T07:14:21;18.80;99.90
34542;DHT22;20784;51.332;12.410;2022-10-17T07:16:50;18.90;99.90
34542;DHT22;20784;51.332;12.410;2022-10-17T07:19:16;18.80;99.90
34542;DHT22;20784;51.332;12.410;2022-10-17T07:21:42;19.00;99.90
34542;DHT22;20784;51.332;12.410;2022-10-17T07:24:07;19.10;99.90
34542;DHT22;20784;51.332;12.410;2022-10-17T07:26:33;19.30;99.90
34542;DHT22;20784;51.332;12.410;2022-10-17T07:28:59;19.60;99.90
34542;DHT22;20784;51.332;12.410;2022-10-17T07:34:28;19.80;99.90
34542;DHT22;20784;51.332;12.410;2022-10-17T07:37:06;20.10;99.90
34542;DHT22;20784;51.332;12.410;2022-10-17T07:42:49;20.50;99.90
34542;DHT22;20784;51.332;12.410;2022-10-17T07:45:20;20.70;99.90
34542;DHT22;20784;51.332;12.410;2022-10-17T07:47:55;20.70;99.90
34542;DHT22;20784;51.332;12.410;2022-10-17T07:50:21;20.70;99.90
34542;DHT22;20784;51.332;12.410;2022-10-17T07:53:05;20.50;99.90
34542;DHT22;20784;51.332;12.410;2022-10-17T07:55:43;20.40;99.90
34542;DHT22;20784;51.332;12.410;2022-10-17T07:58:11;20.20;99.90
34542;DHT22;20784;51.332;12.410;2022-10-17T08:00:51;20.10;99.90
34542;DHT22;20784;51.332;12.410;2022-10-17T08:03:19;19.80;99.90
34542;DHT22;20784;51.332;12.410;2022-10-17T08:05:47;19.70;99.90
34542;DHT22;20784;51.332;12.410;2022-10-17T08:08:13;19.50;99.90
34542;DHT22;20784;51.332;12.410;2022-10-17T08:10:39;19.50;99.90
34542;DHT22;20784;51.332;12.410;2022-10-17T08:13:05;19.60;99.90
34542;DHT22;20784;51.332;12.410;2022-10-17T08:15:52;19.50;99.90
34542;DHT22;20784;51.332;12.410;2022-10-17T08:18:27;19.40;99.90
34542;DHT22;20784;51.332;12.410;2022-10-17T08:21:11;19.40;99.90
34542;DHT22;20784;51.332;12.410;2022-10-17T08:26:54;19.90;99.90
34542;DHT22;20784;51.332;12.410;2022-10-17T08:29:40;20.00;99.90
34542;DHT22;20784;51.332;12.410;2022-10-17T08:32:11;19.90;99.90
34542;DHT22;20784;51.332;12.410;2022-10-17T08:40:30;21.30;99.90
34542;DHT22;20784;51.332;12.410;2022-10-17T08:43:27;21.70;99.90
34542;DHT22;20784;51.332;12.410;2022-10-17T08:46:05;22.30;99.90
34542;DHT22;20784;51.332;12.410;2022-10-17T08:49:01;22.80;99.90
34542;DHT22;20784;51.332;12.410;2022-10-17T08:59:09;24.40;99.90
34542;DHT22;20784;51.332;12.410;2022-10-17T09:08:02;24.40;99.90
34542;DHT22;20784;51.332;12.410;2022-10-17T09:11:03;25.20;99.90
34542;DHT22;20784;51.332;12.410;2022-10-17T09:14:00;25.90;99.90
34542;DHT22;20784;51.332;12.410;2022-10-17T09:22:26;25.00;99.90
34542;DHT22;20784;51.332;12.410;2022-10-17T09:25:02;25.10;99.90
34542;DHT22;20784;51.332;12.410;2022-10-17T09:28:09;25.00;99.90
34542;DHT22;20784;51.332;12.410;2022-10-17T09:31:06;24.70;99.90
34542;DHT22;20784;51.332;12.410;2022-10-17T09:33:38;25.20;99.90
34542;DHT22;20784;51.332;12.410;2022-10-17T09:36:17;26.50;99.90
34542;DHT22;20784;51.332;12.410;2022-10-17T09:38:47;27.30;99.90
34542;DHT22;20784;51.332;12.410;2022-10-17T09:41:33;27.90;99.90
34542;DHT22;20784;51.332;12.410;2022-10-17T09:49:38;29.90;99.90
34542;DHT22;20784;51.332;12.410;2022-10-17T09:52:13;30.00;99.90
34542;DHT22;20784;51.332;12.410;2022-10-17T09:57:11;31.00;99.90
34542;DHT22;20784;51.332;12.410;2022-10-17T09:59:46;31.20;99.90
34542;DHT22;20784;51.332;12.410;2022-10-17T10:02:15;31.30;99.90
34542;DHT22;20784;51.332;12.410;2022-10-17T10:05:08;31.70;99.90
34542;DHT22;20784;51.332;12.410;2022-10-17T10:07:40;32.40;99.90
34542;DHT22;20784;51.332;12.410;2022-10-17T10:10:22;32.80;99.90
34542;DHT22;20784;51.332;12.410;2022-10-17T10:13:25;33.30;99.90
34542;DHT22;20784;51.332;12.410;2022-10-17T10:15:53;32.80;99.90
34542;DHT22;20784;51.332;12.410;2022-10-17T10:18:36;32.90;99.90
34542;DHT22;20784;51.332;12.410;2022-10-17T10:23:28;33.40;99.90
34542;DHT22;20784;51.332;12.410;2022-10-17T10:25:57;33.90;99.00
34542;DHT22;20784;51.332;12.410;2022-10-17T10:31:37;34.20;99.40
34542;DHT22;20784;51.332;12.410;2022-10-17T10:34:28;33.60;97.00
34542;DHT22;20784;51.332;12.410;2022-10-17T10:37:13;33.30;97.90
34542;DHT22;20784;51.332;12.410;2022-10-17T10:40:02;33.50;97.40
34542;DHT22;20784;51.332;12.410;2022-10-17T10:42:34;32.80;97.10
34542;DHT22;20784;51.332;12.410;2022-10-17T10:45:15;32.30;98.70
34542;DHT22;20784;51.332;12.410;2022-10-17T10:48:05;32.40;98.50
34542;DHT22;20784;51.332;12.410;2022-10-17T10:55:57;31.90;99.70
34542;DHT22;20784;51.332;12.410;2022-10-17T10:58:36;32.00;99.40
34542;DHT22;20784;51.332;12.410;2022-10-17T11:01:09;31.60;98.80
34542;DHT22;20784;51.332;12.410;2022-10-17T11:06:26;30.20;99.90
34542;DHT22;20784;51.332;12.410;2022-10-17T11:12:10;29.90;99.90
34542;DHT22;20784;51.332;12.410;2022-10-17T11:25:47;31.80;99.70
34542;DHT22;20784;51.332;12.410;2022-10-17T11:28:17;31.00;99.90
34542;DHT22;20784;51.332;12.410;2022-10-17T11:31:01;30.40;99.90
34542;DHT22;20784;51.332;12.410;2022-10-17T11:33:58;30.30;99.90
34542;DHT22;20784;51.332;12.410;2022-10-17T11:36:27;30.70;99.90
34542;DHT22;20784;51.332;12.410;2022-10-17T11:41:42;30.30;99.90
34542;DHT22;20784;51.332;12.410;2022-10-17T11:44:50;31.00;99.90
34542;DHT22;20784;51.332;12.410;2022-10-17T11:47:43;31.30;99.90
34542;DHT22;20784;51.332;12.410;2022-10-17T11:50:32;31.10;99.90
34542;DHT22;20784;51.332;12.410;2022-10-17T11:53:15;31.40;99.80
34542;DHT22;20784;51.332;12.410;2022-10-17T11:55:41;31.30;99.80
34542;DHT22;20784;51.332;12.410;2022-10-17T11:58:21;31.80;99.90
34542;DHT22;20784;51.332;12.410;2022-10-17T12:03:39;32.30;97.90
34542;DHT22;20784;51.332;12.410;2022-10-17T12:09:25;32.60;97.30
34542;DHT22;20784;51.332;12.410;2022-10-17T12:11:59;32.40;97.90
34542;DHT22;20784;51.332;12.410;2022-10-17T12:14:44;32.50;97.00
34542;DHT22;20784;51.332;12.410;2022-10-17T12:17:37;31.60;98.00
34542;DHT22;20784;51.332;12.410;2022-10-17T12:22:50;30.80;99.30
34542;DHT22;20784;51.332;12.410;2022-10-17T12:25:31;30.60;99.90
34542;DHT22;20784;51.332;12.410;2022-10-17T12:28:13;30.40;99.90
34542;DHT22;20784;51.332;12.410;2022-10-17T12:33:33;29.60;99.90
34542;DHT22;20784;51.332;12.410;2022-10-17T12:39:39;29.20;99.90
34542;DHT22;20784;51.332;12.410;2022-10-17T12:49:43;28.70;99.90
34542;DHT22;20784;51.332;12.410;2022-10-17T13:03:13;28.70;99.90
34542;DHT22;20784;51.332;12.410;2022-10-17T13:05:49;28.50;99.90
34542;DHT22;20784;51.332;12.410;2022-10-17T13:10:53;28.50;99.90
34542;DHT22;20784;51.332;12.410;2022-10-17T13:13:35;28.50;99.90
34542;DHT22;20784;51.332;12.410;2022-10-17T13:16:02;28.50;99.90
34542;DHT22;20784;51.332;12.410;2022-10-17T13:18:34;28.30;99.90
34542;DHT22;20784;51.332;12.410;2022-10-17T13:21:11;28.50;99.90
34542;DHT22;20784;51.332;12.410;2022-10-17T13:23:38;28.50;99.90
34542;DHT22;20784;51.332;12.410;2022-10-17T13:26:19;28.50;99.90
34542;DHT22;20784;51.332;12.410;2022-10-17T13:29:02;28.40;99.90
34542;DHT22;20784;51.332;12.410;2022-10-17T13:31:33;28.30;99.90
34542;DHT22;20784;51.332;12.410;2022-10-17T13:34:02;28.10;99.90
34542;DHT22;20784;51.332;12.410;2022-10-17T13:36:32;28.00;99.90
34542;DHT22;20784;51.332;12.410;2022-10-17T13:39:03;28.00;99.90
34542;DHT22;20784;51.332;12.410;2022-10-17T13:41:31;27.90;99.90
34542;DHT22;20784;51.332;12.410;2022-10-17T13:44:00;27.90;99.90
34542;DHT22;20784;51.332;12.410;2022-10-17T13:46:33;27.70;99.90
34542;DHT22;20784;51.332;12.410;2022-10-17T13:49:09;27.80;99.90
34542;DHT22;20784;51.332;12.410;2022-10-17T13:51:35;27.90;99.90
34542;DHT22;20784;51.332;12.410;2022-10-17T13:54:16;27.90;99.90
34542;DHT22;20784;51.332;12.410;2022-10-17T13:56:42;27.90;99.90
34542;DHT22;20784;51.332;12.410;2022-10-17T13:59:21;27.90;99.90
34542;DHT22;20784;51.332;12.410;2022-10-17T14:01:50;27.90;99.90
34542;DHT22;20784;51.332;12.410;2022-10-17T14:04:19;27.80;99.90
34542;DHT22;20784;51.332;12.410;2022-10-17T14:06:46;27.80;99.90
34542;DHT22;20784;51.332;12.410;2022-10-17T14:11:57;27.90;99.90
34542;DHT22;20784;51.332;12.410;2022-10-17T14:14:27;27.90;99.90
34542;DHT22;20784;51.332;12.410;2022-10-17T14:17:31;27.80;99.90
34542;DHT22;20784;51.332;12.410;2022-10-17T14:20:06;27.70;99.90
34542;DHT22;20784;51.332;12.410;2022-10-17T14:22:40;27.70;99.90
34542;DHT22;20784;51.332;12.410;2022-10-17T14:25:26;27.60;99.90
34542;DHT22;20784;51.332;12.410;2022-10-17T14:28:10;27.50;99.90
34542;DHT22;20784;51.332;12.410;2022-10-17T14:33:45;27.50;99.90
34542;DHT22;20784;51.332;12.410;2022-10-17T14:36:17;27.40;99.90
34542;DHT22;20784;51.332;12.410;2022-10-17T14:38:49;27.30;99.90
34542;DHT22;20784;51.332;12.410;2022-10-17T14:41:24;27.20;99.90
34542;DHT22;20784;51.332;12.410;2022-10-17T14:44:20;27.20;99.90
34542;DHT22;20784;51.332;12.410;2022-10-17T14:46:55;27.20;99.90
34542;DHT22;20784;51.332;12.410;2022-10-17T14:49:40;27.10;99.90
34542;DHT22;20784;51.332;12.410;2022-10-17T14:52:24;26.90;99.90
34542;DHT22;20784;51.332;12.410;2022-10-17T14:54:53;26.80;99.90
34542;DHT22;20784;51.332;12.410;2022-10-17T14:59:59;26.70;99.90
34542;DHT22;20784;51.332;12.410;2022-10-17T15:02:27;26.60;99.90
34542;DHT22;20784;51.332;12.410;2022-10-17T15:04:56;26.50;99.90
34542;DHT22;20784;51.332;12.410;2022-10-17T15:07:22;26.50;99.90
34542;DHT22;20784;51.332;12.410;2022-10-17T15:09:50;26.40;99.90
34542;DHT22;20784;51.332;12.410;2022-10-17T15:12:26;26.30;99.90
34542;DHT22;20784;51.332;12.410;2022-10-17T15:14:56;26.30;99.90
34542;DHT22;20784;51.332;12.410;2022-10-17T15:17:30;26.20;99.90
34542;DHT22;20784;51.332;12.410;2022-10-17T15:20:00;26.20;99.90
34542;DHT22;20784;51.332;12.410;2022-10-17T15:22:31;26.00;99.90
34542;DHT22;20784;51.332;12.410;2022-10-17T15:25:00;25.90;99.90
34542;DHT22;20784;51.332;12.410;2022-10-17T15:27:32;26.00;99.90
34542;DHT22;20784;51.332;12.410;2022-10-17T15:29:58;25.90;99.90
34542;DHT22;20784;51.332;12.410;2022-10-17T15:35:21;25.70;99.90
34542;DHT22;20784;51.332;12.410;2022-10-17T15:37:47;25.60;99.90
34542;DHT22;20784;51.332;12.410;2022-10-17T15:40:19;25.60;99.90
34542;DHT22;20784;51.332;12.410;2022-10-17T15:42:53;25.40;99.90
34542;DHT22;20784;51.332;12.410;2022-10-17T15:45:21;25.40;99.90
34542;DHT22;20784;51.332;12.410;2022-10-17T15:48:13;25.20;99.90
34542;DHT22;20784;51.332;12.410;2022-10-17T15:50:58;25.10;99.90
34542;DHT22;20784;51.332;12.410;2022-10-17T15:53:27;25.00;99.90
34542;DHT22;20784;51.332;12.410;2022-10-17T15:55:52;25.00;99.90
34542;DHT22;20784;51.332;12.410;2022-10-17T15:58:18;24.80;99.90
34542;DHT22;20784;51.332;12.410;2022-10-17T16:00:47;24.70;99.90
34542;DHT22;20784;51.332;12.410;2022-10-17T16:03:13;24.50;99.90
34542;DHT22;20784;51.332;12.410;2022-10-17T16:05:39;24.30;99.90
34542;DHT22;20784;51.332;12.410;2022-10-17T16:08:04;24.10;99.90
34542;DHT22;20784;51.332;12.410;2022-10-17T16:10:30;24.00;99.90
34542;DHT22;20784;51.332;12.410;2022-10-17T16:12:56;23.90;99.90
34542;DHT22;20784;51.332;12.410;2022-10-17T16:15:24;23.80;99.90
34542;DHT22;20784;51.332;12.410;2022-10-17T16:17:52;23.60;99.90
34542;DHT22;20784;51.332;12.410;2022-10-17T16:20:18;23.40;99.90
34542;DHT22;20784;51.332;12.410;2022-10-17T16:22:45;23.20;99.90
34542;DHT22;20784;51.332;12.410;2022-10-17T16:25:22;23.10;99.90
34542;DHT22;20784;51.332;12.410;2022-10-17T16:27:53;22.90;99.90
34542;DHT22;20784;51.332;12.410;2022-10-17T16:30:20;22.70;99.90
34542;DHT22;20784;51.332;12.410;2022-10-17T16:32:46;22.50;99.90
34542;DHT22;20784;51.332;12.410;2022-10-17T16:35:18;22.40;99.90
34542;DHT22;20784;51.332;12.410;2022-10-17T16:37:44;22.20;99.90
34542;DHT22;20784;51.332;12.410;2022-10-17T16:40:10;22.10;99.90
34542;DHT22;20784;51.332;12.410;2022-10-17T16:42:36;21.90;99.90
34542;DHT22;20784;51.332;12.410;2022-10-17T16:45:01;21.70;99.90
34542;DHT22;20784;51.332;12.410;2022-10-17T16:47:27;21.60;99.90
34542;DHT22;20784;51.332;12.410;2022-10-17T16:49:56;21.50;99.90
34542;DHT22;20784;51.332;12.410;2022-10-17T16:52:49;21.40;99.90
34542;DHT22;20784;51.332;12.410;2022-10-17T16:55:15;21.30;99.90
34542;DHT22;20784;51.332;12.410;2022-10-17T16:57:46;21.20;99.90
34542;DHT22;20784;51.332;12.410;2022-10-17T17:00:16;21.00;99.90
34542;DHT22;20784;51.332;12.410;2022-10-17T17:02:42;21.00;99.90
34542;DHT22;20784;51.332;12.410;2022-10-17T17:05:16;20.90;99.90
34542;DHT22;20784;51.332;12.410;2022-10-17T17:07:46;20.80;99.90
34542;DHT22;20784;51.332;12.410;2022-10-17T17:10:14;20.80;99.90
34542;DHT22;20784;51.332;12.410;2022-10-17T17:12:43;20.70;99.90
34542;DHT22;20784;51.332;12.410;2022-10-17T17:15:11;20.70;99.90
34542;DHT22;20784;51.332;12.410;2022-10-17T17:17:40;20.60;99.90
34542;DHT22;20784;51.332;12.410;2022-10-17T17:20:06;20.60;99.90
34542;DHT22;20784;51.332;12.410;2022-10-17T17:22:35;20.50;99.90
34542;DHT22;20784;51.332;12.410;2022-10-17T17:25:03;20.40;99.90
34542;DHT22;20784;51.332;12.410;2022-10-17T17:27:29;20.40;99.90
34542;DHT22;20784;51.332;12.410;2022-10-17T17:29:55;20.40;99.90
34542;DHT22;20784;51.332;12.410;2022-10-17T17:32:22;20.50;99.90
34542;DHT22;20784;51.332;12.410;2022-10-17T17:34:48;20.40;99.90
34542;DHT22;20784;51.332;12.410;2022-10-17T17:37:22;20.40;99.90
34542;DHT22;20784;51.332;12.410;2022-10-17T17:39:47;20.50;99.90
34542;DHT22;20784;51.332;12.410;2022-10-17T17:42:13;20.60;99.90
34542;DHT22;20784;51.332;12.410;2022-10-17T17:44:42;20.70;99.90
34542;DHT22;20784;51.332;12.410;2022-10-17T17:47:08;21.00;99.90
34542;DHT22;20784;51.332;12.410;2022-10-17T17:49:36;21.20;99.90
34542;DHT22;20784;51.332;12.410;2022-10-17T17:52:12;21.20;99.90
34542;DHT22;20784;51.332;12.410;2022-10-17T17:54:46;21.10;99.90
34542;DHT22;20784;51.332;12.410;2022-10-17T17:57:21;21.10;99.90
34542;DHT22;20784;51.332;12.410;2022-10-17T17:59:46;21.10;99.90
34542;DHT22;20784;51.332;12.410;2022-10-17T18:02:16;21.00;99.90
34542;DHT22;20784;51.332;12.410;2022-10-17T18:04:42;21.00;99.90
34542;DHT22;20784;51.332;12.410;2022-10-17T18:07:10;20.90;99.90
34542;DHT22;20784;51.332;12.410;2022-10-17T18:09:36;20.90;99.90
34542;DHT22;20784;51.332;12.410;2022-10-17T18:12:02;20.80;99.90
34542;DHT22;20784;51.332;12.410;2022-10-17T18:14:31;20.60;99.90
34542;DHT22;20784;51.332;12.410;2022-10-17T18:16:57;20.60;99.90
34542;DHT22;20784;51.332;12.410;2022-10-17T18:19:23;20.60;99.90
34542;DHT22;20784;51.332;12.410;2022-10-17T18:21:48;20.80;99.90
34542;DHT22;20784;51.332;12.410;2022-10-17T18:24:14;20.90;99.90
34542;DHT22;20784;51.332;12.410;2022-10-17T18:26:43;21.00;99.90
34542;DHT22;20784;51.332;12.410;2022-10-17T18:29:09;20.90;99.90
34542;DHT22;20784;51.332;12.410;2022-10-17T18:31:37;20.80;99.90
34542;DHT22;20784;51.332;12.410;2022-10-17T18:34:09;20.80;99.90
34542;DHT22;20784;51.332;12.410;2022-10-17T18:36:35;20.70;99.90
34542;DHT22;20784;51.332;12.410;2022-10-17T18:39:03;20.50;99.90
34542;DHT22;20784;51.332;12.410;2022-10-17T18:41:31;20.50;99.90
34542;DHT22;20784;51.332;12.410;2022-10-17T18:44:00;20.50;99.90
34542;DHT22;20784;51.332;12.410;2022-10-17T18:46:32;20.50;99.90
34542;DHT22;20784;51.332;12.410;2022-10-17T18:49:06;20.50;99.90
34542;DHT22;20784;51.332;12.410;2022-10-17T18:51:32;20.60;99.90
34542;DHT22;20784;51.332;12.410;2022-10-17T18:54:00;20.50;99.90
34542;DHT22;20784;51.332;12.410;2022-10-17T18:56:30;20.50;99.90
34542;DHT22;20784;51.332;12.410;2022-10-17T18:58:56;20.50;99.90
34542;DHT22;20784;51.332;12.410;2022-10-17T19:01:24;20.50;99.90
34542;DHT22;20784;51.332;12.410;2022-10-17T19:03:53;20.50;99.90
34542;DHT22;20784;51.332;12.410;2022-10-17T19:06:24;20.50;99.90
34542;DHT22;20784;51.332;12.410;2022-10-17T19:08:59;20.50;99.90
34542;DHT22;20784;51.332;12.410;2022-10-17T19:11:34;20.40;99.90
34542;DHT22;20784;51.332;12.410;2022-10-17T19:14:04;20.40;99.90